Latest Weather Observations for Carnarvon

IDW60801

Issued at 2:32 pm WST Thursday 3 September 2015 (issued every 30 minutes, with the page automatically refreshed every 10 minutes)

About weather observations | Map of weather stations | Latest weather observations for WA | Other Formats
Station Details ID: 006011 Name: CARNARVON AIRPORT Lat: -24.89 Lon: 113.67 Height: 4.0 m
Data from the previous 72 hours. | See also: Recent months at Carnarvon
Date/Time
WST
Temp
°C
App
Temp
°C
Dew
Point
Rel
Hum
%
Delta-T
°C
Wind Press
QNH
hPa
Press
MSL
hPa
Rain
since 9 am
mm
Dir
 
Spd
km/h
Gust
km/h
Spd
kts
Gust
kts
03/02:30pm 21.0 16.8 9.6 48 6.1 SW 22 28 12 15 1017.8 - 0.0
03/02:00pm 21.1 17.7 10.6 51 5.7 SW 19 26 10 14 1018.0 - 0.0
03/01:30pm 20.6 16.8 9.8 50 5.8 SW 20 28 11 15 1018.4 - 0.0
03/01:00pm 20.6 16.4 8.3 45 6.4 SSW 20 28 11 15 1018.4 - 0.0
03/12:30pm 20.4 15.7 7.8 44 6.5 SSW 22 26 12 14 1018.8 - 0.0
03/12:00pm 19.6 15.4 8.2 47 5.9 SSW 20 28 11 15 1019.1 1019.1 0.0
03/11:30am 19.6 15.7 6.9 43 6.4 SSW 17 22 9 12 1019.5 - 0.0
03/11:00am 18.8 15.6 7.0 46 5.9 SSW 13 19 7 10 1019.7 - 0.0
03/10:30am 18.8 14.9 7.0 46 5.9 S 17 20 9 11 1019.6 - 0.0
03/10:00am 18.0 14.3 6.4 46 5.7 S 15 20 8 11 1019.7 - 0.0
03/09:30am 17.9 15.0 6.3 46 5.7 S 11 13 6 7 1019.6 - 0.0
03/09:00am 17.0 14.2 5.0 45 5.7 ENE 9 11 5 6 1019.3 1019.3 0.0
03/08:30am 15.0 12.6 4.4 49 4.9 ENE 6 7 3 4 1019.1 - 0.0
03/08:00am 12.9 11.0 6.6 65 3.0 ESE 6 7 3 4 1018.8 - 0.0
03/07:30am 10.5 8.7 8.0 84 1.2 SE 7 9 4 5 1018.6 - 0.0
03/07:27am 10.2 8.2 8.6 90 0.8 SE 9 9 5 5 1018.5 - 0.0
03/07:04am 8.1 5.9 6.3 88 0.8 SE 7 7 4 4 1018.4 - 0.0
03/07:00am 8.0 5.9 6.7 91 0.6 SE 7 9 4 5 1018.4 - 0.0
03/06:30am 9.0 8.3 6.9 87 1.0 CALM 0 0 0 0 1017.9 - 0.0
03/06:00am 9.2 8.3 7.9 92 0.6 SE 2 6 1 3 1017.9 1017.9 0.0
03/05:30am 11.2 11.1 9.6 90 0.8 CALM 0 0 0 0 1017.6 - 0.0
03/05:00am 10.5 9.0 9.3 92 0.6 SE 7 9 4 5 1017.4 - 0.0
03/04:30am 12.3 10.8 10.4 88 1.0 S 9 9 5 5 1017.1 - 0.0
03/04:00am 14.9 12.8 11.1 78 2.0 SSW 13 17 7 9 1017.4 - 0.0
03/03:30am 15.8 12.9 10.9 72 2.6 S 17 22 9 12 1017.6 - 0.0
03/03:00am 15.9 13.0 11.0 72 2.6 S 17 20 9 11 1017.7 1017.7 0.0
03/02:30am 16.1 12.8 10.8 71 2.8 SSW 19 24 10 13 1018.1 - 0.0
03/02:00am 16.2 12.3 10.7 70 2.9 S 22 26 12 14 1018.4 - 0.0
03/01:30am 16.2 12.6 10.7 70 2.9 S 20 28 11 15 1018.7 - 0.0
03/01:00am 15.6 12.1 10.3 70 2.8 S 19 24 10 13 1018.9 - 0.0
03/12:30am 15.6 11.7 9.6 67 3.1 S 20 24 11 13 1019.1 - 0.0
03/12:00am 15.7 11.7 9.1 65 3.4 S 20 26 11 14 1019.4 1019.4 0.0
 
Date/Time
WST
Temp
°C
App
Temp
°C
Dew
Point
Rel
Hum
%
Delta-T
°C
Wind Press
QNH
hPa
Press
MSL
hPa
Rain
since 9 am
mm
Dir
 
Spd
km/h
Gust
km/h
Spd
kts
Gust
kts
02/11:30pm 15.7 11.8 9.3 65 3.3 S 20 26 11 14 1019.5 - 0.0
02/11:00pm 15.5 11.4 8.8 64 3.4 S 20 24 11 13 1019.6 - 0.0
02/10:30pm 15.8 11.9 9.4 65 3.3 S 20 26 11 14 1019.8 - 0.0
02/10:00pm 16.4 11.8 9.7 64 3.5 S 24 32 13 17 1019.8 - 0.0
02/09:30pm 16.5 12.7 8.9 61 3.9 S 19 22 10 12 1019.8 - 0.0
02/09:00pm 16.8 12.9 8.8 59 4.1 SSW 19 24 10 13 1019.7 1019.7 0.0
02/08:30pm 16.8 13.3 8.8 59 4.1 SSW 17 22 9 12 1019.5 - 0.0
02/08:00pm 17.0 12.8 8.1 55 4.5 SSW 20 24 11 13 1019.3 - 0.0
02/07:30pm 17.1 13.1 8.2 56 4.5 SSW 19 24 10 13 1019.1 - 0.0
02/07:00pm 17.2 13.1 8.6 57 4.4 SSW 20 26 11 14 1018.9 - 0.0
02/06:30pm 17.0 13.0 8.1 55 4.5 SSW 19 26 10 14 1018.5 - 0.0
02/06:00pm 17.5 13.1 6.5 48 5.4 S 19 24 10 13 1018.0 1018.0 0.0
02/05:30pm 18.2 13.4 5.7 44 6.1 S 20 24 11 13 1017.9 - 0.0
02/05:00pm 18.7 13.7 4.4 39 6.8 SSW 20 30 11 16 1018.0 - 0.0
02/04:30pm 18.8 12.8 3.4 36 7.2 SSW 24 30 13 16 1017.9 - 0.0
02/04:00pm 19.2 13.3 4.0 36 7.2 SSW 24 30 13 16 1017.8 - 0.0
02/03:30pm 19.0 12.2 3.1 34 7.4 SSW 28 33 15 18 1018.0 - 0.0
02/03:00pm 19.8 12.2 3.1 33 7.8 SW 32 39 17 21 1018.4 1018.4 0.0
02/02:30pm 20.1 12.6 3.3 33 7.9 SW 32 41 17 22 1018.3 - 0.0
02/02:00pm 20.0 13.2 3.2 33 7.9 SSW 28 35 15 19 1018.3 - 0.0
02/01:30pm 20.3 13.4 2.7 31 8.2 SSW 28 33 15 18 1018.4 - 0.0
02/01:00pm 20.7 13.7 1.7 28 8.7 SSW 28 35 15 19 1018.8 - 0.0
02/12:30pm 20.4 13.8 2.2 30 8.4 SSW 26 32 14 17 1018.9 - 0.0
02/12:00pm 20.7 14.5 2.1 29 8.6 SSW 24 33 13 18 1019.5 1019.5 0.0
02/11:30am 21.2 16.6 -0.7 23 9.6 E 13 24 7 13 1019.7 - 0.0
02/11:00am 19.8 14.9 -0.8 25 8.9 SSE 15 20 8 11 1020.3 - 0.0
02/10:30am 19.8 15.0 0.0 26 8.7 SE 15 24 8 13 1020.6 - 0.0
02/10:00am 20.2 14.2 -1.6 23 9.3 E 20 26 11 14 1020.6 - 0.0
02/09:30am 18.3 12.4 -1.0 27 8.2 E 20 28 11 15 1020.7 - 0.0
02/09:00am 16.5 9.4 -1.0 30 7.3 E 26 33 14 18 1020.8 1020.8 0.0
02/08:30am 15.0 8.0 -0.3 35 6.4 E 26 32 14 17 1020.8 - 0.0
02/08:00am 13.1 7.5 1.0 43 5.1 ESE 20 26 11 14 1021.0 - 0.0
02/07:30am 11.1 6.6 2.2 54 3.8 ESE 15 22 8 12 1020.9 - 0.0
02/07:00am 9.0 5.3 2.6 64 2.7 SE 11 15 6 8 1020.7 - 0.0
02/06:30am 8.5 4.4 2.5 66 2.5 SE 13 15 7 8 1020.3 - 0.0
02/06:00am 9.0 5.0 2.9 65 2.6 SE 13 15 7 8 1020.0 1020.0 0.0
02/05:30am 9.8 5.4 2.8 61 3.0 SE 15 20 8 11 1019.8 - 0.0
02/05:00am 10.5 5.7 2.8 59 3.3 SE 17 20 9 11 1019.6 - 0.0
02/04:30am 10.9 6.2 3.1 58 3.4 SE 17 20 9 11 1019.6 - 0.0
02/04:00am 10.7 6.1 3.6 61 3.1 SE 17 20 9 11 1019.6 - 0.0
02/03:30am 11.1 6.5 3.9 61 3.2 SE 17 19 9 10 1019.8 - 0.0
02/03:00am 11.4 6.9 4.2 61 3.2 SE 17 20 9 11 1019.7 1019.7 0.0
02/02:30am 11.8 7.8 4.7 62 3.2 SE 15 19 8 10 1020.1 - 0.0
02/02:00am 13.1 8.7 4.8 57 3.8 SSE 17 22 9 12 1020.2 - 0.0
02/01:30am 13.7 9.0 5.3 57 3.9 SSE 19 24 10 13 1020.4 - 0.0
02/01:00am 14.6 9.8 5.7 55 4.2 SSE 20 26 11 14 1020.4 - 0.0
02/12:30am 15.5 10.6 6.9 56 4.2 SSE 22 32 12 17 1020.4 - 0.0
02/12:00am 15.7 11.9 9.9 68 3.0 SSE 20 30 11 16 1020.5 1020.5 0.0
 
Date/Time
WST
Temp
°C
App
Temp
°C
Dew
Point
Rel
Hum
%
Delta-T
°C
Wind Press
QNH
hPa
Press
MSL
hPa
Rain
since 9 am
mm
Dir
 
Spd
km/h
Gust
km/h
Spd
kts
Gust
kts
01/11:30pm 15.7 12.3 10.4 71 2.8 SSE 19 24 10 13 1020.5 - 0.0
01/11:00pm 16.3 12.5 11.3 72 2.7 S 22 30 12 16 1020.7 - 0.0
01/10:30pm 16.5 12.8 11.5 72 2.7 S 22 30 12 16 1020.6 - 0.0
01/10:00pm 16.6 12.3 10.6 67 3.2 S 24 32 13 17 1020.6 - 0.0
01/09:30pm 16.7 12.2 10.0 64 3.5 S 24 32 13 17 1020.4 - 0.0
01/09:00pm 16.9 11.9 9.4 61 3.9 S 26 33 14 18 1020.4 1020.4 0.0
01/08:30pm 17.1 12.7 8.9 58 4.2 S 22 30 12 16 1020.1 - 0.0
01/08:00pm 17.4 12.4 8.2 54 4.7 S 24 33 13 18 1020.0 - 0.0
01/07:30pm 17.6 12.4 7.2 50 5.2 S 24 35 13 19 1019.6 - 0.0
01/07:00pm 17.7 12.8 6.8 49 5.4 S 22 30 12 16 1019.4 - 0.0
01/06:30pm 18.3 12.5 6.3 45 5.9 S 26 37 14 20 1019.1 - 0.0
01/06:00pm 19.0 12.3 5.5 41 6.6 S 30 41 16 22 1018.9 1018.9 0.0
01/05:30pm 19.7 13.0 5.4 39 7.0 S 30 39 16 21 1018.7 - 0.0
01/05:00pm 20.5 13.2 4.6 35 7.7 S 32 41 17 22 1018.6 - 0.0
01/04:30pm 20.7 13.3 5.2 36 7.6 S 33 44 18 24 1018.7 - 0.0
01/04:00pm 21.0 13.8 5.7 37 7.6 S 33 48 18 26 1018.9 - 0.0
01/03:30pm 21.2 13.7 4.5 33 8.1 S 33 46 18 25 1019.0 - 0.0
01/03:00pm 21.8 14.6 5.8 35 8.0 S 33 44 18 24 1019.1 1019.1 0.0
01/02:30pm 21.5 13.9 5.6 35 7.9 S 35 44 19 24 1019.3 - 0.0
01/02:00pm 21.5 14.0 6.2 37 7.7 S 35 44 19 24 1019.5 - 0.0
01/01:30pm 21.9 14.1 6.5 37 7.8 S 37 48 20 26 1019.7 - 0.0
01/01:00pm 20.9 13.1 8.2 44 6.6 S 39 52 21 28 1019.9 - 0.0
01/12:30pm 21.5 14.2 7.3 40 7.3 S 35 44 19 24 1020.3 - 0.0
01/12:00pm 20.9 14.8 9.7 48 6.0 S 32 43 17 23 1020.7 1020.7 0.0
01/11:30am 21.6 15.9 6.9 38 7.5 SE 26 43 14 23 1021.0 - 0.0
01/11:00am 21.2 15.5 6.8 39 7.3 SE 26 39 14 21 1021.3 - 0.0
01/10:30am 20.2 14.7 7.5 43 6.5 SE 26 35 14 19 1021.5 - 0.0
01/10:00am 19.9 14.1 7.8 45 6.2 SE 28 41 15 22 1021.6 - 0.0
01/09:30am 19.5 13.5 8.5 49 5.7 SE 30 39 16 21 1021.7 - 0.0
01/09:00am 18.2 12.8 9.4 56 4.6 SE 28 37 15 20 1021.5 1021.5 0.0
01/08:30am 16.8 12.6 9.7 63 3.7 SE 22 28 12 15 1021.4 - 0.0
01/08:00am 14.7 10.7 9.0 68 2.9 SE 20 30 11 16 1021.2 - 0.0
01/07:30am 13.4 10.0 7.7 68 2.8 SE 15 22 8 12 1021.0 - 0.0
01/07:00am 10.6 8.0 7.7 82 1.4 ESE 11 15 6 8 1020.8 - 0.0
01/06:30am 10.5 7.5 7.8 83 1.3 ESE 13 17 7 9 1020.5 - 0.0
01/06:00am 9.7 6.6 7.4 85 1.1 ESE 13 15 7 8 1020.2 1020.2 0.0
01/05:30am 9.8 7.1 7.3 84 1.2 ESE 11 13 6 7 1020.0 - 0.0
01/05:00am 11.0 8.4 7.9 81 1.5 SE 11 13 6 7 1019.9 - 0.0
01/04:30am 11.4 8.5 8.1 80 1.6 SSE 13 15 7 8 1019.7 - 0.0
01/04:00am 11.1 8.2 8.0 81 1.5 SE 13 13 7 7 1019.8 - 0.0
01/03:30am 13.0 10.3 9.0 77 2.0 SSE 13 17 7 9 1020.0 - 0.0
01/03:00am 14.6 11.6 9.3 70 2.7 SSE 15 20 8 11 1020.2 1020.2 0.0
01/02:30am 15.0 12.8 9.3 68 2.9 SE 11 13 6 7 1020.3 - 0.0
01/02:00am 16.5 12.8 9.6 63 3.6 S 19 26 10 14 1020.3 - 0.0
01/01:30am 16.2 12.2 8.3 59 4.0 S 19 24 10 13 1020.6 - 0.0
01/01:00am 16.2 12.5 8.0 58 4.1 S 17 22 9 12 1020.7 - 0.0
01/12:30am 16.5 12.4 8.0 57 4.3 S 19 26 10 14 1020.8 - 0.0
01/12:00am 16.9 12.5 8.9 59 4.1 S 22 30 12 16 1020.8 1020.8 0.0
 
Date/Time
WST
Temp
°C
App
Temp
°C
Dew
Point
Rel
Hum
%
Delta-T
°C
Wind Press
QNH
hPa
Press
MSL
hPa
Rain
since 9 am
mm
Dir
 
Spd
km/h
Gust
km/h
Spd
kts
Gust
kts
31/11:30pm 17.2 11.7 9.3 59 4.1 S 28 37 15 20 1020.8 - 0.0
31/11:00pm 17.2 12.2 9.7 61 3.9 S 26 35 14 19 1020.9 - 0.0
31/10:30pm 17.4 12.5 9.8 61 4.0 S 26 33 14 18 1021.0 - 0.0
31/10:00pm 18.2 12.7 9.2 55 4.7 S 28 35 15 19 1021.0 - 0.0
31/09:30pm 18.1 14.0 10.2 60 4.2 S 22 32 12 17 1020.9 - 0.0
31/09:00pm 18.2 13.2 11.0 63 3.9 S 28 35 15 19 1020.8 1020.8 0.0
31/08:30pm 17.5 14.7 11.2 66 3.4 S 17 22 9 12 1020.7 - 0.0
31/08:00pm 17.4 15.1 11.7 69 3.1 S 15 19 8 10 1020.3 - 0.0
31/07:30pm 17.3 15.3 11.6 69 3.1 S 13 15 7 8 1020.2 - 0.0
31/07:00pm 17.6 15.7 11.7 68 3.2 S 13 17 7 9 1020.1 - 0.0
31/06:30pm 18.3 15.2 11.7 65 3.6 S 19 22 10 12 1020.0 - 0.0
31/06:00pm 18.6 15.4 11.2 62 4.0 SSW 19 26 10 14 1019.8 1019.8 0.0
31/05:30pm 19.4 15.4 10.3 55 4.9 SSW 22 26 12 14 1019.6 - 0.0
31/05:00pm 20.1 16.5 11.8 59 4.6 S 22 32 12 17 1019.6 - 0.0
31/04:30pm 20.0 15.4 11.2 57 4.8 S 26 33 14 18 1019.5 - 0.0
31/04:00pm 20.3 15.1 10.3 52 5.4 S 28 35 15 19 1019.5 - 0.0
31/03:30pm 20.8 15.8 11.1 53 5.3 S 28 33 15 18 1019.8 - 0.0
31/03:00pm 20.6 15.6 11.1 54 5.2 SSW 28 39 15 21 1019.9 1019.9 0.0

Other Formats:

Comma delimited format used in spreadsheet applications
http://www.bom.gov.au/fwo/IDW60801/IDW60801.94300.axf

JavaScript Object Notation format (JSON) in row-major order
http://www.bom.gov.au/fwo/IDW60801/IDW60801.94300.json